sensor_id;sensor_type;location;lat;lon;timestamp;temperature;humidity
52273;DHT22;38227;50.942;4.016;2023-04-07T00:01:02;10.50;99.90
52273;DHT22;38227;50.942;4.016;2023-04-07T00:03:31;10.40;99.90
52273;DHT22;38227;50.942;4.016;2023-04-07T00:06:07;10.40;99.90
52273;DHT22;38227;50.942;4.016;2023-04-07T00:08:45;10.30;99.90
52273;DHT22;38227;50.942;4.016;2023-04-07T00:11:18;10.30;99.90
52273;DHT22;38227;50.942;4.016;2023-04-07T00:13:48;10.40;99.90
52273;DHT22;38227;50.942;4.016;2023-04-07T00:16:27;10.30;99.90
52273;DHT22;38227;50.942;4.016;2023-04-07T00:18:57;10.30;99.90
52273;DHT22;38227;50.942;4.016;2023-04-07T00:21:30;10.40;99.90
52273;DHT22;38227;50.942;4.016;2023-04-07T00:24:00;10.50;99.90
52273;DHT22;38227;50.942;4.016;2023-04-07T00:26:40;10.50;99.90
52273;DHT22;38227;50.942;4.016;2023-04-07T00:29:11;10.40;99.90
52273;DHT22;38227;50.942;4.016;2023-04-07T00:31:45;10.30;99.90
52273;DHT22;38227;50.942;4.016;2023-04-07T00:34:14;10.20;99.90
52273;DHT22;38227;50.942;4.016;2023-04-07T00:36:43;10.30;99.90
52273;DHT22;38227;50.942;4.016;2023-04-07T00:39:19;10.20;99.90
52273;DHT22;38227;50.942;4.016;2023-04-07T00:41:52;10.10;99.90
52273;DHT22;38227;50.942;4.016;2023-04-07T00:44:31;10.10;99.90
52273;DHT22;38227;50.942;4.016;2023-04-07T00:47:10;10.10;99.90
52273;DHT22;38227;50.942;4.016;2023-04-07T00:49:43;10.10;99.90
52273;DHT22;38227;50.942;4.016;2023-04-07T00:52:24;10.20;99.90
52273;DHT22;38227;50.942;4.016;2023-04-07T00:55:01;10.10;99.90
52273;DHT22;38227;50.942;4.016;2023-04-07T00:57:32;9.90;99.90
52273;DHT22;38227;50.942;4.016;2023-04-07T01:00:10;9.90;99.90
52273;DHT22;38227;50.942;4.016;2023-04-07T01:03:08;9.90;99.90
52273;DHT22;38227;50.942;4.016;2023-04-07T01:05:58;9.80;99.90
52273;DHT22;38227;50.942;4.016;2023-04-07T01:08:50;9.80;99.90
52273;DHT22;38227;50.942;4.016;2023-04-07T01:11:41;9.70;99.90
52273;DHT22;38227;50.942;4.016;2023-04-07T01:14:14;9.70;99.90
52273;DHT22;38227;50.942;4.016;2023-04-07T01:16:48;9.70;99.90
52273;DHT22;38227;50.942;4.016;2023-04-07T01:19:50;9.70;99.90
52273;DHT22;38227;50.942;4.016;2023-04-07T01:22:27;9.70;99.90
52273;DHT22;38227;50.942;4.016;2023-04-07T01:28:40;9.80;99.90
52273;DHT22;38227;50.942;4.016;2023-04-07T01:31:12;9.90;99.90
52273;DHT22;38227;50.942;4.016;2023-04-07T01:33:45;10.00;99.90
52273;DHT22;38227;50.942;4.016;2023-04-07T01:36:17;9.90;99.90
52273;DHT22;38227;50.942;4.016;2023-04-07T01:38:51;9.90;99.90
52273;DHT22;38227;50.942;4.016;2023-04-07T01:41:41;9.90;99.90
52273;DHT22;38227;50.942;4.016;2023-04-07T01:44:13;9.90;99.90
52273;DHT22;38227;50.942;4.016;2023-04-07T01:46:42;9.90;99.90
52273;DHT22;38227;50.942;4.016;2023-04-07T01:49:12;9.80;99.90
52273;DHT22;38227;50.942;4.016;2023-04-07T01:51:54;9.80;99.90
52273;DHT22;38227;50.942;4.016;2023-04-07T01:54:24;9.80;99.90
52273;DHT22;38227;50.942;4.016;2023-04-07T01:57:00;9.70;99.90
52273;DHT22;38227;50.942;4.016;2023-04-07T01:59:35;9.70;99.90
52273;DHT22;38227;50.942;4.016;2023-04-07T02:02:16;9.70;99.90
52273;DHT22;38227;50.942;4.016;2023-04-07T02:05:08;9.70;99.90
52273;DHT22;38227;50.942;4.016;2023-04-07T02:08:07;9.60;99.90
52273;DHT22;38227;50.942;4.016;2023-04-07T02:10:48;9.60;99.90
52273;DHT22;38227;50.942;4.016;2023-04-07T02:13:30;9.60;99.90
52273;DHT22;38227;50.942;4.016;2023-04-07T02:16:06;9.70;99.90
52273;DHT22;38227;50.942;4.016;2023-04-07T02:18:37;9.60;99.90
52273;DHT22;38227;50.942;4.016;2023-04-07T02:21:13;9.60;99.90
52273;DHT22;38227;50.942;4.016;2023-04-07T02:23:44;9.70;99.90
52273;DHT22;38227;50.942;4.016;2023-04-07T02:26:32;9.70;99.90
52273;DHT22;38227;50.942;4.016;2023-04-07T02:29:05;9.80;99.90
52273;DHT22;38227;50.942;4.016;2023-04-07T02:31:49;9.70;99.90
52273;DHT22;38227;50.942;4.016;2023-04-07T02:34:27;9.70;99.90
52273;DHT22;38227;50.942;4.016;2023-04-07T02:37:05;9.80;99.90
52273;DHT22;38227;50.942;4.016;2023-04-07T02:39:36;9.70;99.90
52273;DHT22;38227;50.942;4.016;2023-04-07T02:42:11;9.60;99.90
52273;DHT22;38227;50.942;4.016;2023-04-07T02:44:40;9.60;99.90
52273;DHT22;38227;50.942;4.016;2023-04-07T02:47:09;9.70;99.90
52273;DHT22;38227;50.942;4.016;2023-04-07T02:49:39;9.70;99.90
52273;DHT22;38227;50.942;4.016;2023-04-07T02:52:11;9.70;99.90
52273;DHT22;38227;50.942;4.016;2023-04-07T02:54:41;9.60;99.90
52273;DHT22;38227;50.942;4.016;2023-04-07T02:57:20;9.60;99.90
52273;DHT22;38227;50.942;4.016;2023-04-07T03:00:00;9.70;99.90
52273;DHT22;38227;50.942;4.016;2023-04-07T03:02:38;9.70;99.90
52273;DHT22;38227;50.942;4.016;2023-04-07T03:05:08;9.80;99.90
52273;DHT22;38227;50.942;4.016;2023-04-07T03:07:47;9.80;99.90
52273;DHT22;38227;50.942;4.016;2023-04-07T03:10:17;9.80;99.90
52273;DHT22;38227;50.942;4.016;2023-04-07T03:12:57;9.80;99.90
52273;DHT22;38227;50.942;4.016;2023-04-07T03:15:26;9.80;99.90
52273;DHT22;38227;50.942;4.016;2023-04-07T03:17:59;9.70;99.90
52273;DHT22;38227;50.942;4.016;2023-04-07T03:20:29;9.70;99.90
52273;DHT22;38227;50.942;4.016;2023-04-07T03:23:01;9.70;99.90
52273;DHT22;38227;50.942;4.016;2023-04-07T03:25:31;9.60;99.90
52273;DHT22;38227;50.942;4.016;2023-04-07T03:28:04;9.70;99.90
52273;DHT22;38227;50.942;4.016;2023-04-07T03:30:34;9.70;99.90
52273;DHT22;38227;50.942;4.016;2023-04-07T03:33:07;9.70;99.90
52273;DHT22;38227;50.942;4.016;2023-04-07T03:35:36;9.80;99.90
52273;DHT22;38227;50.942;4.016;2023-04-07T03:38:09;9.70;99.90
52273;DHT22;38227;50.942;4.016;2023-04-07T03:40:38;9.60;99.90
52273;DHT22;38227;50.942;4.016;2023-04-07T03:43:11;9.60;99.90
52273;DHT22;38227;50.942;4.016;2023-04-07T03:45:45;9.60;99.90
52273;DHT22;38227;50.942;4.016;2023-04-07T03:48:21;9.50;99.90
52273;DHT22;38227;50.942;4.016;2023-04-07T03:51:01;9.50;99.90
52273;DHT22;38227;50.942;4.016;2023-04-07T03:53:36;9.40;99.90
52273;DHT22;38227;50.942;4.016;2023-04-07T03:56:06;9.50;99.90
52273;DHT22;38227;50.942;4.016;2023-04-07T03:58:46;9.50;99.90
52273;DHT22;38227;50.942;4.016;2023-04-07T04:01:16;9.50;99.90
52273;DHT22;38227;50.942;4.016;2023-04-07T04:03:47;9.50;99.90
52273;DHT22;38227;50.942;4.016;2023-04-07T04:06:17;9.50;99.90
52273;DHT22;38227;50.942;4.016;2023-04-07T04:08:55;9.50;99.90
52273;DHT22;38227;50.942;4.016;2023-04-07T04:11:25;9.40;99.90
52273;DHT22;38227;50.942;4.016;2023-04-07T04:14:05;9.30;99.90
52273;DHT22;38227;50.942;4.016;2023-04-07T04:16:34;9.20;99.90
52273;DHT22;38227;50.942;4.016;2023-04-07T04:19:07;9.20;99.90
52273;DHT22;38227;50.942;4.016;2023-04-07T04:21:36;9.10;99.90
52273;DHT22;38227;50.942;4.016;2023-04-07T04:24:15;9.10;99.90
52273;DHT22;38227;50.942;4.016;2023-04-07T04:26:45;9.00;99.90
52273;DHT22;38227;50.942;4.016;2023-04-07T04:29:15;9.10;99.90
52273;DHT22;38227;50.942;4.016;2023-04-07T04:31:49;9.00;99.90
52273;DHT22;38227;50.942;4.016;2023-04-07T04:34:18;9.00;99.90
52273;DHT22;38227;50.942;4.016;2023-04-07T04:36:57;9.00;99.90
52273;DHT22;38227;50.942;4.016;2023-04-07T04:39:26;9.00;99.90
52273;DHT22;38227;50.942;4.016;2023-04-07T04:42:04;9.00;99.90
52273;DHT22;38227;50.942;4.016;2023-04-07T04:44:34;9.20;99.90
52273;DHT22;38227;50.942;4.016;2023-04-07T04:47:13;9.00;99.90
52273;DHT22;38227;50.942;4.016;2023-04-07T04:49:43;8.90;99.90
52273;DHT22;38227;50.942;4.016;2023-04-07T04:52:12;8.90;99.90
52273;DHT22;38227;50.942;4.016;2023-04-07T04:54:48;8.90;99.90
52273;DHT22;38227;50.942;4.016;2023-04-07T04:57:35;8.80;99.90
52273;DHT22;38227;50.942;4.016;2023-04-07T05:00:05;8.90;99.90
52273;DHT22;38227;50.942;4.016;2023-04-07T05:02:39;8.80;99.90
52273;DHT22;38227;50.942;4.016;2023-04-07T05:05:18;8.70;99.90
52273;DHT22;38227;50.942;4.016;2023-04-07T05:07:56;8.70;99.90
52273;DHT22;38227;50.942;4.016;2023-04-07T05:10:40;8.60;99.90
52273;DHT22;38227;50.942;4.016;2023-04-07T05:13:10;8.50;99.90
52273;DHT22;38227;50.942;4.016;2023-04-07T05:15:42;8.50;99.90
52273;DHT22;38227;50.942;4.016;2023-04-07T05:18:13;8.50;99.90
52273;DHT22;38227;50.942;4.016;2023-04-07T05:20:47;8.60;99.90
52273;DHT22;38227;50.942;4.016;2023-04-07T05:23:18;8.80;99.90
52273;DHT22;38227;50.942;4.016;2023-04-07T05:25:48;8.90;99.90
52273;DHT22;38227;50.942;4.016;2023-04-07T05:28:28;8.80;99.90
52273;DHT22;38227;50.942;4.016;2023-04-07T05:30:57;8.80;99.90
52273;DHT22;38227;50.942;4.016;2023-04-07T05:33:36;8.70;99.90
52273;DHT22;38227;50.942;4.016;2023-04-07T05:36:07;8.80;99.90
52273;DHT22;38227;50.942;4.016;2023-04-07T05:38:49;8.80;99.90
52273;DHT22;38227;50.942;4.016;2023-04-07T05:41:20;8.90;99.90
52273;DHT22;38227;50.942;4.016;2023-04-07T05:44:02;8.90;99.90
52273;DHT22;38227;50.942;4.016;2023-04-07T05:46:31;8.90;99.90
52273;DHT22;38227;50.942;4.016;2023-04-07T05:49:06;8.90;99.90
52273;DHT22;38227;50.942;4.016;2023-04-07T05:51:36;9.00;99.90
52273;DHT22;38227;50.942;4.016;2023-04-07T05:54:10;9.00;99.90
52273;DHT22;38227;50.942;4.016;2023-04-07T05:56:48;9.10;99.90
52273;DHT22;38227;50.942;4.016;2023-04-07T05:59:30;9.20;99.90
52273;DHT22;38227;50.942;4.016;2023-04-07T06:02:02;9.20;99.90
52273;DHT22;38227;50.942;4.016;2023-04-07T06:04:42;9.40;99.90
52273;DHT22;38227;50.942;4.016;2023-04-07T06:07:11;9.40;99.90
52273;DHT22;38227;50.942;4.016;2023-04-07T06:09:46;9.30;99.90
52273;DHT22;38227;50.942;4.016;2023-04-07T06:12:17;9.50;99.90
52273;DHT22;38227;50.942;4.016;2023-04-07T06:14:51;9.70;99.90
52273;DHT22;38227;50.942;4.016;2023-04-07T06:17:19;10.00;99.90
52273;DHT22;38227;50.942;4.016;2023-04-07T06:19:58;10.20;99.90
52273;DHT22;38227;50.942;4.016;2023-04-07T06:22:26;10.20;99.90
52273;DHT22;38227;50.942;4.016;2023-04-07T06:24:59;10.20;99.90
52273;DHT22;38227;50.942;4.016;2023-04-07T06:27:29;10.20;99.90
52273;DHT22;38227;50.942;4.016;2023-04-07T06:30:08;10.20;99.90
52273;DHT22;38227;50.942;4.016;2023-04-07T06:32:47;10.40;99.90
52273;DHT22;38227;50.942;4.016;2023-04-07T06:35:20;10.40;99.90
52273;DHT22;38227;50.942;4.016;2023-04-07T06:38:00;10.50;99.90
52273;DHT22;38227;50.942;4.016;2023-04-07T06:40:41;10.50;99.90
52273;DHT22;38227;50.942;4.016;2023-04-07T06:43:19;10.50;99.90
52273;DHT22;38227;50.942;4.016;2023-04-07T06:45:51;10.50;99.90
52273;DHT22;38227;50.942;4.016;2023-04-07T06:48:26;10.60;99.90
52273;DHT22;38227;50.942;4.016;2023-04-07T06:50:59;10.50;99.90
52273;DHT22;38227;50.942;4.016;2023-04-07T06:53:30;10.60;99.90
52273;DHT22;38227;50.942;4.016;2023-04-07T06:56:12;10.60;99.90
52273;DHT22;38227;50.942;4.016;2023-04-07T06:59:01;10.60;99.90
52273;DHT22;38227;50.942;4.016;2023-04-07T07:01:39;10.70;99.90
52273;DHT22;38227;50.942;4.016;2023-04-07T07:04:12;10.70;99.90
52273;DHT22;38227;50.942;4.016;2023-04-07T07:06:41;10.80;99.90
52273;DHT22;38227;50.942;4.016;2023-04-07T07:09:11;10.80;99.90
52273;DHT22;38227;50.942;4.016;2023-04-07T07:11:44;10.80;99.90
52273;DHT22;38227;50.942;4.016;2023-04-07T07:14:14;10.80;99.90
52273;DHT22;38227;50.942;4.016;2023-04-07T07:16:47;10.70;99.90
52273;DHT22;38227;50.942;4.016;2023-04-07T07:19:17;10.90;99.90
52273;DHT22;38227;50.942;4.016;2023-04-07T07:21:49;11.00;99.90
52273;DHT22;38227;50.942;4.016;2023-04-07T07:24:24;11.00;99.90
52273;DHT22;38227;50.942;4.016;2023-04-07T07:26:54;11.00;99.90
52273;DHT22;38227;50.942;4.016;2023-04-07T07:29:27;10.90;99.90
52273;DHT22;38227;50.942;4.016;2023-04-07T07:31:56;10.70;99.90
52273;DHT22;38227;50.942;4.016;2023-04-07T07:34:25;10.60;99.90
52273;DHT22;38227;50.942;4.016;2023-04-07T07:36:53;10.70;99.90
52273;DHT22;38227;50.942;4.016;2023-04-07T07:39:26;10.70;99.90
52273;DHT22;38227;50.942;4.016;2023-04-07T07:42:12;10.80;99.90
52273;DHT22;38227;50.942;4.016;2023-04-07T07:44:53;10.90;99.90
52273;DHT22;38227;50.942;4.016;2023-04-07T07:47:34;10.70;99.90
52273;DHT22;38227;50.942;4.016;2023-04-07T07:50:06;10.70;99.90
52273;DHT22;38227;50.942;4.016;2023-04-07T07:52:35;10.30;99.90
52273;DHT22;38227;50.942;4.016;2023-04-07T07:55:03;10.30;99.90
52273;DHT22;38227;50.942;4.016;2023-04-07T07:57:34;10.20;99.90
52273;DHT22;38227;50.942;4.016;2023-04-07T08:00:08;10.20;99.90
52273;DHT22;38227;50.942;4.016;2023-04-07T08:02:38;10.10;99.90
52273;DHT22;38227;50.942;4.016;2023-04-07T08:05:07;9.90;99.90
52273;DHT22;38227;50.942;4.016;2023-04-07T08:07:41;9.90;99.90
52273;DHT22;38227;50.942;4.016;2023-04-07T08:10:11;10.20;99.90
52273;DHT22;38227;50.942;4.016;2023-04-07T08:12:44;10.60;99.90
52273;DHT22;38227;50.942;4.016;2023-04-07T08:15:13;11.10;99.90
52273;DHT22;38227;50.942;4.016;2023-04-07T08:17:45;11.30;99.90
52273;DHT22;38227;50.942;4.016;2023-04-07T08:20:18;11.70;99.90
52273;DHT22;38227;50.942;4.016;2023-04-07T08:22:50;11.40;99.90
52273;DHT22;38227;50.942;4.016;2023-04-07T08:25:18;11.60;99.90
52273;DHT22;38227;50.942;4.016;2023-04-07T08:27:51;11.60;99.90
52273;DHT22;38227;50.942;4.016;2023-04-07T08:30:20;11.80;99.90
52273;DHT22;38227;50.942;4.016;2023-04-07T08:32:58;12.20;99.90
52273;DHT22;38227;50.942;4.016;2023-04-07T08:35:28;12.40;99.90
52273;DHT22;38227;50.942;4.016;2023-04-07T08:38:06;12.30;99.90
52273;DHT22;38227;50.942;4.016;2023-04-07T08:40:35;12.20;99.90
52273;DHT22;38227;50.942;4.016;2023-04-07T08:43:09;12.00;99.90
52273;DHT22;38227;50.942;4.016;2023-04-07T08:45:44;12.00;99.90
52273;DHT22;38227;50.942;4.016;2023-04-07T08:48:16;11.70;99.90
52273;DHT22;38227;50.942;4.016;2023-04-07T08:50:46;11.20;99.90
52273;DHT22;38227;50.942;4.016;2023-04-07T08:53:44;11.10;99.90
52273;DHT22;38227;50.942;4.016;2023-04-07T08:56:19;11.00;99.90
52273;DHT22;38227;50.942;4.016;2023-04-07T08:58:55;10.90;99.90
52273;DHT22;38227;50.942;4.016;2023-04-07T09:01:27;11.10;99.90
52273;DHT22;38227;50.942;4.016;2023-04-07T09:04:00;11.10;99.90
52273;DHT22;38227;50.942;4.016;2023-04-07T09:06:32;11.20;99.90
52273;DHT22;38227;50.942;4.016;2023-04-07T09:09:03;11.50;99.90
52273;DHT22;38227;50.942;4.016;2023-04-07T09:11:38;11.50;99.90
52273;DHT22;38227;50.942;4.016;2023-04-07T09:14:19;11.60;99.90
52273;DHT22;38227;50.942;4.016;2023-04-07T09:16:48;11.80;99.90
52273;DHT22;38227;50.942;4.016;2023-04-07T09:19:27;11.80;99.90
52273;DHT22;38227;50.942;4.016;2023-04-07T09:21:56;11.90;99.90
52273;DHT22;38227;50.942;4.016;2023-04-07T09:24:29;11.90;99.90
52273;DHT22;38227;50.942;4.016;2023-04-07T09:27:30;12.00;99.90
52273;DHT22;38227;50.942;4.016;2023-04-07T09:30:13;12.00;99.90
52273;DHT22;38227;50.942;4.016;2023-04-07T09:32:41;11.90;99.90
52273;DHT22;38227;50.942;4.016;2023-04-07T09:35:14;11.90;99.90
52273;DHT22;38227;50.942;4.016;2023-04-07T09:37:59;11.70;99.90
52273;DHT22;38227;50.942;4.016;2023-04-07T09:40:32;11.60;99.90
52273;DHT22;38227;50.942;4.016;2023-04-07T09:43:05;11.70;99.90
52273;DHT22;38227;50.942;4.016;2023-04-07T09:45:42;11.80;99.90
52273;DHT22;38227;50.942;4.016;2023-04-07T09:48:21;11.70;99.90
52273;DHT22;38227;50.942;4.016;2023-04-07T09:51:06;11.70;99.90
52273;DHT22;38227;50.942;4.016;2023-04-07T09:53:49;11.80;99.90
52273;DHT22;38227;50.942;4.016;2023-04-07T09:56:19;11.80;99.90
52273;DHT22;38227;50.942;4.016;2023-04-07T09:58:59;12.00;99.90
52273;DHT22;38227;50.942;4.016;2023-04-07T10:01:31;12.20;99.90
52273;DHT22;38227;50.942;4.016;2023-04-07T10:04:03;12.50;99.90
52273;DHT22;38227;50.942;4.016;2023-04-07T10:06:34;12.40;99.90
52273;DHT22;38227;50.942;4.016;2023-04-07T10:09:12;12.60;99.90
52273;DHT22;38227;50.942;4.016;2023-04-07T10:11:41;12.60;99.90
52273;DHT22;38227;50.942;4.016;2023-04-07T10:14:14;12.90;99.90
52273;DHT22;38227;50.942;4.016;2023-04-07T10:16:45;13.00;99.90
52273;DHT22;38227;50.942;4.016;2023-04-07T10:19:16;13.70;99.90
52273;DHT22;38227;50.942;4.016;2023-04-07T10:21:51;14.50;99.90
52273;DHT22;38227;50.942;4.016;2023-04-07T10:27:24;15.80;99.90
52273;DHT22;38227;50.942;4.016;2023-04-07T10:29:56;15.90;99.90
52273;DHT22;38227;50.942;4.016;2023-04-07T10:32:26;15.20;99.90
52273;DHT22;38227;50.942;4.016;2023-04-07T10:34:59;14.50;99.90
52273;DHT22;38227;50.942;4.016;2023-04-07T10:37:30;13.80;99.90
52273;DHT22;38227;50.942;4.016;2023-04-07T10:43:05;12.80;99.90
52273;DHT22;38227;50.942;4.016;2023-04-07T10:46:05;12.70;99.90
52273;DHT22;38227;50.942;4.016;2023-04-07T10:48:34;12.50;99.90
52273;DHT22;38227;50.942;4.016;2023-04-07T10:51:25;12.40;99.90
52273;DHT22;38227;50.942;4.016;2023-04-07T10:57:14;12.70;99.90
52273;DHT22;38227;50.942;4.016;2023-04-07T11:02:56;13.10;99.90
52273;DHT22;38227;50.942;4.016;2023-04-07T11:05:29;13.20;99.90
52273;DHT22;38227;50.942;4.016;2023-04-07T11:07:59;12.80;99.90
52273;DHT22;38227;50.942;4.016;2023-04-07T11:10:31;12.70;99.90
52273;DHT22;38227;50.942;4.016;2023-04-07T11:13:03;12.70;99.90
52273;DHT22;38227;50.942;4.016;2023-04-07T11:15:35;12.80;99.90
52273;DHT22;38227;50.942;4.016;2023-04-07T11:18:13;12.80;99.90
52273;DHT22;38227;50.942;4.016;2023-04-07T11:21:04;12.90;99.90
52273;DHT22;38227;50.942;4.016;2023-04-07T11:23:42;13.10;99.90
52273;DHT22;38227;50.942;4.016;2023-04-07T11:26:13;12.60;99.90
52273;DHT22;38227;50.942;4.016;2023-04-07T11:28:48;12.20;99.90
52273;DHT22;38227;50.942;4.016;2023-04-07T11:31:43;12.10;99.90
52273;DHT22;38227;50.942;4.016;2023-04-07T11:34:14;12.10;99.90
52273;DHT22;38227;50.942;4.016;2023-04-07T11:36:53;12.00;99.90
52273;DHT22;38227;50.942;4.016;2023-04-07T11:39:26;11.80;99.90
52273;DHT22;38227;50.942;4.016;2023-04-07T11:42:02;11.90;99.90
52273;DHT22;38227;50.942;4.016;2023-04-07T11:44:31;11.90;99.90
52273;DHT22;38227;50.942;4.016;2023-04-07T11:47:04;11.90;99.90
52273;DHT22;38227;50.942;4.016;2023-04-07T11:49:34;11.90;99.90
52273;DHT22;38227;50.942;4.016;2023-04-07T11:52:12;11.90;99.90
52273;DHT22;38227;50.942;4.016;2023-04-07T11:54:47;11.80;99.90
52273;DHT22;38227;50.942;4.016;2023-04-07T11:57:27;11.90;99.90
52273;DHT22;38227;50.942;4.016;2023-04-07T12:00:06;11.90;99.90
52273;DHT22;38227;50.942;4.016;2023-04-07T12:02:35;12.00;99.90
52273;DHT22;38227;50.942;4.016;2023-04-07T12:05:07;12.10;99.90
52273;DHT22;38227;50.942;4.016;2023-04-07T12:07:51;11.90;99.90
52273;DHT22;38227;50.942;4.016;2023-04-07T12:10:23;11.90;99.90
52273;DHT22;38227;50.942;4.016;2023-04-07T12:12:53;12.10;99.90
52273;DHT22;38227;50.942;4.016;2023-04-07T12:15:27;12.30;99.90
52273;DHT22;38227;50.942;4.016;2023-04-07T12:17:56;12.40;99.90
52273;DHT22;38227;50.942;4.016;2023-04-07T12:20:35;12.50;99.90
52273;DHT22;38227;50.942;4.016;2023-04-07T12:23:05;12.70;99.90
52273;DHT22;38227;50.942;4.016;2023-04-07T12:25:46;12.90;99.90
52273;DHT22;38227;50.942;4.016;2023-04-07T12:28:15;12.90;99.90
52273;DHT22;38227;50.942;4.016;2023-04-07T12:30:45;12.90;99.90
52273;DHT22;38227;50.942;4.016;2023-04-07T12:33:24;13.00;99.90
52273;DHT22;38227;50.942;4.016;2023-04-07T12:35:52;13.00;99.90
52273;DHT22;38227;50.942;4.016;2023-04-07T12:38:25;13.20;99.90
52273;DHT22;38227;50.942;4.016;2023-04-07T12:40:57;13.00;99.90
52273;DHT22;38227;50.942;4.016;2023-04-07T12:43:32;13.00;99.90
52273;DHT22;38227;50.942;4.016;2023-04-07T12:46:12;12.90;99.90
52273;DHT22;38227;50.942;4.016;2023-04-07T12:48:46;13.00;99.90
52273;DHT22;38227;50.942;4.016;2023-04-07T12:51:17;12.90;99.90
52273;DHT22;38227;50.942;4.016;2023-04-07T12:53:49;12.90;99.90
52273;DHT22;38227;50.942;4.016;2023-04-07T12:56:19;12.80;99.90
52273;DHT22;38227;50.942;4.016;2023-04-07T12:58:50;12.50;99.90
52273;DHT22;38227;50.942;4.016;2023-04-07T13:01:24;12.30;99.90
52273;DHT22;38227;50.942;4.016;2023-04-07T13:03:54;12.10;99.90
52273;DHT22;38227;50.942;4.016;2023-04-07T13:06:23;12.10;99.90
52273;DHT22;38227;50.942;4.016;2023-04-07T13:08:56;11.90;99.90
52273;DHT22;38227;50.942;4.016;2023-04-07T13:11:25;11.80;99.90
52273;DHT22;38227;50.942;4.016;2023-04-07T13:13:54;11.70;99.90
52273;DHT22;38227;50.942;4.016;2023-04-07T13:16:26;11.90;99.90
52273;DHT22;38227;50.942;4.016;2023-04-07T13:18:55;12.10;99.90
52273;DHT22;38227;50.942;4.016;2023-04-07T13:21:34;12.10;99.90
52273;DHT22;38227;50.942;4.016;2023-04-07T13:24:04;12.10;99.90
52273;DHT22;38227;50.942;4.016;2023-04-07T13:26:37;12.30;99.90
52273;DHT22;38227;50.942;4.016;2023-04-07T13:29:07;12.40;99.90
52273;DHT22;38227;50.942;4.016;2023-04-07T13:31:40;12.50;99.90
52273;DHT22;38227;50.942;4.016;2023-04-07T13:34:13;12.40;99.90
52273;DHT22;38227;50.942;4.016;2023-04-07T13:36:51;12.50;99.90
52273;DHT22;38227;50.942;4.016;2023-04-07T13:39:23;12.70;99.90
52273;DHT22;38227;50.942;4.016;2023-04-07T13:41:59;12.90;99.90
52273;DHT22;38227;50.942;4.016;2023-04-07T13:44:31;12.90;99.90
52273;DHT22;38227;50.942;4.016;2023-04-07T13:47:00;12.50;99.90
52273;DHT22;38227;50.942;4.016;2023-04-07T13:49:29;12.20;99.90
52273;DHT22;38227;50.942;4.016;2023-04-07T13:52:03;12.00;99.90
52273;DHT22;38227;50.942;4.016;2023-04-07T13:54:32;12.00;99.90
52273;DHT22;38227;50.942;4.016;2023-04-07T13:57:04;12.20;99.90
52273;DHT22;38227;50.942;4.016;2023-04-07T13:59:33;12.50;99.90
52273;DHT22;38227;50.942;4.016;2023-04-07T14:02:13;12.50;99.90
52273;DHT22;38227;50.942;4.016;2023-04-07T14:04:42;12.50;99.90
52273;DHT22;38227;50.942;4.016;2023-04-07T14:07:22;12.60;99.90
52273;DHT22;38227;50.942;4.016;2023-04-07T14:09:53;12.70;99.90
52273;DHT22;38227;50.942;4.016;2023-04-07T14:12:22;12.50;99.90
52273;DHT22;38227;50.942;4.016;2023-04-07T14:14:55;12.80;99.90
52273;DHT22;38227;50.942;4.016;2023-04-07T14:17:25;12.90;99.90
52273;DHT22;38227;50.942;4.016;2023-04-07T14:19:58;13.00;99.90
52273;DHT22;38227;50.942;4.016;2023-04-07T14:22:28;12.80;99.90
52273;DHT22;38227;50.942;4.016;2023-04-07T14:25:06;12.80;99.90
52273;DHT22;38227;50.942;4.016;2023-04-07T14:27:36;12.80;99.90
52273;DHT22;38227;50.942;4.016;2023-04-07T14:30:07;12.80;99.90
52273;DHT22;38227;50.942;4.016;2023-04-07T14:32:37;12.80;99.90
52273;DHT22;38227;50.942;4.016;2023-04-07T14:35:10;12.90;99.90
52273;DHT22;38227;50.942;4.016;2023-04-07T14:37:38;13.10;99.90
52273;DHT22;38227;50.942;4.016;2023-04-07T14:40:09;13.30;99.90
52273;DHT22;38227;50.942;4.016;2023-04-07T14:42:38;13.10;99.90
52273;DHT22;38227;50.942;4.016;2023-04-07T14:45:09;13.20;99.90
52273;DHT22;38227;50.942;4.016;2023-04-07T14:47:42;13.40;99.90
52273;DHT22;38227;50.942;4.016;2023-04-07T14:50:15;13.20;99.90
52273;DHT22;38227;50.942;4.016;2023-04-07T14:52:46;13.00;99.90
52273;DHT22;38227;50.942;4.016;2023-04-07T14:55:25;13.10;99.90
52273;DHT22;38227;50.942;4.016;2023-04-07T14:57:54;12.80;99.90
52273;DHT22;38227;50.942;4.016;2023-04-07T15:00:23;12.50;99.90
52273;DHT22;38227;50.942;4.016;2023-04-07T15:02:55;12.20;99.90
52273;DHT22;38227;50.942;4.016;2023-04-07T15:05:28;12.20;99.90
52273;DHT22;38227;50.942;4.016;2023-04-07T15:07:57;12.00;99.90
52273;DHT22;38227;50.942;4.016;2023-04-07T15:10:26;11.90;99.90
52273;DHT22;38227;50.942;4.016;2023-04-07T15:12:55;12.00;99.90
52273;DHT22;38227;50.942;4.016;2023-04-07T15:15:26;12.10;99.90
52273;DHT22;38227;50.942;4.016;2023-04-07T15:18:03;12.10;99.90
52273;DHT22;38227;50.942;4.016;2023-04-07T15:20:39;12.20;99.90
52273;DHT22;38227;50.942;4.016;2023-04-07T15:23:14;12.30;99.90
52273;DHT22;38227;50.942;4.016;2023-04-07T15:25:50;12.30;99.90
52273;DHT22;38227;50.942;4.016;2023-04-07T15:28:22;12.00;99.90
52273;DHT22;38227;50.942;4.016;2023-04-07T15:30:54;11.70;99.90
52273;DHT22;38227;50.942;4.016;2023-04-07T15:33:24;11.50;99.90
52273;DHT22;38227;50.942;4.016;2023-04-07T15:35:56;11.60;99.90
52273;DHT22;38227;50.942;4.016;2023-04-07T15:38:28;11.70;99.90
52273;DHT22;38227;50.942;4.016;2023-04-07T15:41:06;11.70;99.90
52273;DHT22;38227;50.942;4.016;2023-04-07T15:43:45;11.80;99.90
52273;DHT22;38227;50.942;4.016;2023-04-07T15:46:16;11.80;99.90
52273;DHT22;38227;50.942;4.016;2023-04-07T15:48:54;11.80;99.90
52273;DHT22;38227;50.942;4.016;2023-04-07T15:51:26;11.70;99.90
52273;DHT22;38227;50.942;4.016;2023-04-07T15:53:57;11.70;99.90
52273;DHT22;38227;50.942;4.016;2023-04-07T15:56:36;11.70;99.90
52273;DHT22;38227;50.942;4.016;2023-04-07T15:59:05;11.70;99.90
52273;DHT22;38227;50.942;4.016;2023-04-07T16:01:33;11.50;99.90
52273;DHT22;38227;50.942;4.016;2023-04-07T16:04:03;11.50;99.90
52273;DHT22;38227;50.942;4.016;2023-04-07T16:06:35;11.60;99.90
52273;DHT22;38227;50.942;4.016;2023-04-07T16:09:22;11.60;99.90
52273;DHT22;38227;50.942;4.016;2023-04-07T16:11:52;11.60;99.90
52273;DHT22;38227;50.942;4.016;2023-04-07T16:14:32;11.40;99.90
52273;DHT22;38227;50.942;4.016;2023-04-07T16:17:01;11.40;99.90
52273;DHT22;38227;50.942;4.016;2023-04-07T16:19:42;11.40;99.90
52273;DHT22;38227;50.942;4.016;2023-04-07T16:22:17;11.30;99.90
52273;DHT22;38227;50.942;4.016;2023-04-07T16:24:52;11.50;99.90
52273;DHT22;38227;50.942;4.016;2023-04-07T16:27:30;11.50;99.90
52273;DHT22;38227;50.942;4.016;2023-04-07T16:30:20;11.50;99.90
52273;DHT22;38227;50.942;4.016;2023-04-07T16:32:48;11.50;99.90
52273;DHT22;38227;50.942;4.016;2023-04-07T16:35:20;11.50;99.90